Time;durP1;ratioP1;P1;durP2;ratioP2;P2;SDS_P1;SDS_P2;PMS_P1;PMS_P2;Temp;Humidity;BMP_temperature;BMP_pressure;BME280_temperature;BME280_humidity;BME280_pressure;Samples;Min_cycle;Max_cycle;Signal;HPM_P1;HPM_P2
2022/03/10 00:02:22;;;;;;;13.27;5.68;;;;;;;-149.78;100.00;50314.97;4820820;29;20038;-70
2022/03/10 00:04:47;;;;;;;14.48;5.80;;;;;;;-149.78;100.00;50342.38;4841704;29;20071;-70
2022/03/10 00:07:13;;;;;;;18.98;5.22;;;;;;;-149.78;100.00;50334.53;4841883;29;20456;-70
2022/03/10 00:09:39;;;;;;;14.63;5.47;;;;;;;-149.78;100.00;50279.78;4810163;29;20037;-70
2022/03/10 00:12:05;;;;;;;14.82;5.03;;;;;;;-149.78;100.00;50283.69;4810120;29;20083;-70
2022/03/10 00:14:31;;;;;;;14.93;5.43;;;;;;;-149.78;100.00;50297.38;4840110;29;20049;-70
2022/03/10 00:16:58;;;;;;;18.00;5.82;;;;;;;-149.78;100.00;50311.06;4824284;29;20075;-71
2022/03/10 00:19:24;;;;;;;13.10;5.70;;;;;;;-149.78;100.00;50334.53;4839809;29;20038;-70
2022/03/10 00:21:50;;;;;;;21.00;6.07;;;;;;;-149.78;100.00;50307.16;4808301;29;20049;-70
2022/03/10 00:24:18;;;;;;;28.38;6.18;;;;;;;-149.78;100.00;50342.38;4841335;29;20071;-70
2022/03/10 00:26:45;;;;;;;20.73;6.20;;;;;;;-149.78;100.00;50322.81;4840428;29;20042;-70
2022/03/10 00:29:11;;;;;;;20.02;6.15;;;;;;;-149.78;100.00;50268.03;4834774;29;20117;-70
2022/03/10 00:31:37;;;;;;;15.32;6.85;;;;;;;-149.78;100.00;50291.50;4823205;29;20050;-70
2022/03/10 00:34:03;;;;;;;14.63;5.85;;;;;;;-149.78;100.00;50334.53;4807159;29;20475;-70
2022/03/10 00:36:29;;;;;;;21.25;6.63;;;;;;;-149.78;100.00;50311.06;4823415;29;20038;-70
2022/03/10 00:38:54;;;;;;;20.25;6.60;;;;;;;-149.78;100.00;50350.19;4822696;29;20069;-70
2022/03/10 00:41:21;;;;;;;18.30;7.03;;;;;;;-149.78;100.00;50346.28;4806425;29;20383;-70
2022/03/10 00:43:48;;;;;;;21.00;7.90;;;;;;;-149.78;100.00;50279.78;4823142;29;20446;-70
2022/03/10 00:46:13;;;;;;;21.27;7.32;;;;;;;-149.78;100.00;50297.38;4806762;29;20129;-70
2022/03/10 00:48:40;;;;;;;22.65;8.30;;;;;;;-149.78;100.00;50303.25;4823778;29;20137;-70
2022/03/10 00:51:06;;;;;;;26.17;8.02;;;;;;;-149.78;100.00;50295.44;4841310;29;20044;-70
2022/03/10 00:53:33;;;;;;;22.17;8.15;;;;;;;-149.78;100.00;50314.97;4824898;29;20699;-70
2022/03/10 00:56:02;;;;;;;19.75;7.68;;;;;;;-149.78;100.00;50318.91;4840227;29;20494;-70
2022/03/10 00:58:27;;;;;;;22.65;7.15;;;;;;;-149.78;100.00;50326.72;4824696;29;20066;-70
2022/03/10 01:00:53;;;;;;;21.65;7.03;;;;;;;-149.78;100.00;50322.81;4840994;29;20134;-70
2022/03/10 01:03:20;;;;;;;17.38;6.82;;;;;;;-149.78;100.00;50338.44;4825031;29;20089;-70
2022/03/10 01:05:46;;;;;;;15.32;6.97;;;;;;;-149.78;100.00;50299.34;4841191;29;20038;-70
2022/03/10 01:08:12;;;;;;;26.55;7.97;;;;;;;-149.78;100.00;50291.50;4839814;29;20467;-70
2022/03/10 01:10:39;;;;;;;14.00;6.57;;;;;;;-149.78;100.00;50346.28;4839938;29;20387;-70
2022/03/10 01:13:15;;;;;;;17.95;7.72;;;;;;;-149.78;100.00;50326.72;4824768;29;20069;-70
2022/03/10 01:15:41;;;;;;;15.93;7.18;;;;;;;-149.78;100.00;50307.16;4840706;29;20037;-70
2022/03/10 01:18:08;;;;;;;19.83;7.00;;;;;;;-149.78;100.00;50326.72;4824495;29;20069;-70
2022/03/10 01:20:34;;;;;;;17.00;7.50;;;;;;;-149.78;100.00;50309.13;4840355;29;20066;-70
2022/03/10 01:22:59;;;;;;;15.02;6.43;;;;;;;-149.78;100.00;50279.78;4824441;29;20034;-70
2022/03/10 01:25:25;;;;;;;17.00;6.40;;;;;;;-149.78;100.00;50295.44;4809262;29;20069;-70
2022/03/10 01:28:11;;;;;;;18.42;6.30;;;;;;;-149.78;100.00;50291.50;4841174;29;20077;-70
2022/03/10 01:30:55;;;;;;;20.85;6.50;;;;;;;-149.78;100.00;50275.88;4790608;29;20054;-69
2022/03/10 01:33:39;;;;;;;18.60;6.00;;;;;;;-149.78;100.00;50297.38;4803640;29;20070;-70
2022/03/10 01:36:23;;;;;;;14.98;5.93;;;;;;;-149.78;100.00;50314.97;4805116;29;20093;-70
2022/03/10 01:39:08;;;;;;;15.85;6.65;;;;;;;-149.78;100.00;50305.22;4804370;29;20469;-70
2022/03/10 01:41:52;;;;;;;16.05;5.75;;;;;;;-149.78;100.00;50350.19;4803984;29;20057;-70
2022/03/10 01:44:36;;;;;;;16.42;5.70;;;;;;;-149.78;100.00;50299.34;4804928;29;20053;-70
2022/03/10 01:47:21;;;;;;;16.15;6.45;;;;;;;-149.78;100.00;50313.03;4819554;29;20057;-70
2022/03/10 01:50:10;;;;;;;17.63;5.88;;;;;;;-149.78;100.00;50299.34;4827245;29;20158;-70
2022/03/10 01:52:54;;;;;;;19.90;6.50;;;;;;;-149.78;100.00;50295.44;4844206;29;20049;-70
2022/03/10 01:55:39;;;;;;;15.43;6.28;;;;;;;-149.78;100.00;50311.06;4844165;29;20177;-70
2022/03/10 01:58:23;;;;;;;16.38;6.20;;;;;;;-149.78;100.00;50338.44;4830027;29;20048;-70
2022/03/10 02:01:09;;;;;;;12.07;5.88;;;;;;;-149.78;100.00;50322.81;4841424;29;20133;-70
2022/03/10 02:03:55;;;;;;;28.27;8.02;;;;;;;-149.78;100.00;50328.69;4826885;29;20110;-70
2022/03/10 02:06:39;;;;;;;19.45;6.65;;;;;;;-149.78;100.00;50318.91;4812529;29;20098;-70
2022/03/10 02:12:26;;;;;;;;;;;;;;;-149.78;100.00;50283.69;4825470;29;20105;-70
2022/03/10 02:18:17;;;;;;;14.68;7.03;;;;;;;-149.78;100.00;50334.53;4807061;29;20576;-70
2022/03/10 02:21:01;;;;;;;15.38;5.93;;;;;;;-149.78;100.00;50307.16;4823034;29;20045;-70
2022/03/10 02:23:46;;;;;;;16.35;6.78;;;;;;;-149.78;100.00;50334.53;4825246;29;20061;-70
2022/03/10 02:26:30;;;;;;;16.05;6.43;;;;;;;-149.78;100.00;50338.44;4793412;29;20054;-70
2022/03/10 02:29:15;;;;;;;18.33;6.07;;;;;;;-149.78;100.00;50338.44;4813834;29;20559;-70
2022/03/10 02:31:59;;;;;;;21.45;6.85;;;;;;;-149.78;100.00;50283.69;4824954;29;20131;-69
2022/03/10 02:34:44;;;;;;;17.58;6.80;;;;;;;-149.78;100.00;50293.47;4825111;29;20406;-70
2022/03/10 02:37:28;;;;;;;21.63;6.70;;;;;;;-149.78;100.00;50361.91;4825241;29;20079;-70
2022/03/10 02:40:13;;;;;;;18.58;7.25;;;;;;;-149.78;100.00;50352.16;4824972;29;20057;-70
2022/03/10 02:42:57;;;;;;;13.57;6.15;;;;;;;-149.78;100.00;50283.69;4840649;29;20101;-70
2022/03/10 02:45:41;;;;;;;18.73;6.47;;;;;;;-149.78;100.00;50311.06;4843306;29;20105;-70
2022/03/10 02:48:25;;;;;;;19.73;7.00;;;;;;;-149.78;100.00;50289.56;4802577;29;20065;-70
2022/03/10 02:51:09;;;;;;;21.75;6.95;;;;;;;-149.78;100.00;50291.50;4792853;29;20053;-70
2022/03/10 02:53:53;;;;;;;28.08;7.78;;;;;;;-149.78;100.00;50358.00;4805866;29;20514;-70
2022/03/10 02:56:37;;;;;;;17.75;6.22;;;;;;;-149.78;100.00;50338.44;4805924;29;20057;-70
2022/03/10 02:59:22;;;;;;;26.25;7.22;;;;;;;-149.78;100.00;50287.59;4806559;29;20061;-70
2022/03/10 03:02:05;;;;;;;20.60;7.13;;;;;;;-149.78;100.00;50299.34;4806425;29;20522;-71
2022/03/10 03:04:49;;;;;;;16.48;7.03;;;;;;;-149.78;100.00;50307.16;4806528;29;20057;-70
2022/03/10 03:07:34;;;;;;;16.50;7.13;;;;;;;-149.78;100.00;50311.06;4833763;29;20136;-71
2022/03/10 03:10:18;;;;;;;22.83;6.90;;;;;;;-149.78;100.00;50307.16;4827042;29;20268;-70
2022/03/10 03:13:05;;;;;;;20.48;7.13;;;;;;;-149.78;100.00;50350.19;4824757;29;20052;-70
2022/03/10 03:15:49;;;;;;;15.52;6.95;;;;;;;-149.78;100.00;50322.81;4835982;29;20588;-71
2022/03/10 03:18:33;;;;;;;16.48;7.35;;;;;;;-149.78;100.00;50309.13;4842565;29;20076;-70
2022/03/10 03:21:17;;;;;;;20.95;7.82;;;;;;;-149.78;100.00;50320.84;4842508;29;20065;-70
2022/03/10 03:24:02;;;;;;;18.45;7.18;;;;;;;-149.78;100.00;50281.75;4842619;29;20057;-70
2022/03/10 03:26:46;;;;;;;21.45;7.95;;;;;;;-149.78;100.00;50307.16;4842453;29;20144;-70
2022/03/10 03:29:30;;;;;;;16.45;7.13;;;;;;;-149.78;100.00;50322.81;4841386;29;20061;-70
2022/03/10 03:32:14;;;;;;;22.88;8.10;;;;;;;-149.78;100.00;50307.16;4842225;29;20076;-70
2022/03/10 03:34:58;;;;;;;17.63;7.18;;;;;;;-149.78;100.00;50350.19;4828475;29;20064;-70
2022/03/10 03:37:43;;;;;;;21.73;8.05;;;;;;;-149.78;100.00;50318.91;4842400;29;20056;-70
2022/03/10 03:40:27;;;;;;;21.73;7.93;;;;;;;-149.78;100.00;50330.63;4841911;29;20061;-71
2022/03/10 03:43:11;;;;;;;22.55;7.82;;;;;;;-149.78;100.00;50336.50;4828445;29;20114;-70
2022/03/10 03:45:56;;;;;;;20.02;7.93;;;;;;;-149.78;100.00;50334.53;4841941;29;20182;-70
2022/03/10 03:48:39;;;;;;;17.58;7.22;;;;;;;-149.78;100.00;50397.13;4841027;29;20061;-70
2022/03/10 03:51:24;;;;;;;23.55;8.80;;;;;;;-149.78;100.00;50322.81;4828481;29;20080;-70
2022/03/10 03:54:08;;;;;;;31.00;8.60;;;;;;;-149.78;100.00;50322.81;4841939;29;20149;-70
2022/03/10 03:56:52;;;;;;;22.50;7.65;;;;;;;-149.78;100.00;50313.03;4842074;29;20069;-71
2022/03/10 03:59:36;;;;;;;20.95;8.77;;;;;;;-149.78;100.00;50314.97;4841074;29;20079;-70
2022/03/10 04:02:20;;;;;;;22.95;8.27;;;;;;;-149.78;100.00;50346.28;4828050;29;20402;-70
2022/03/10 04:04:46;;;;;;;18.35;7.88;;;;;;;-149.78;100.00;50332.59;4825748;29;20120;-71
2022/03/10 04:07:12;;;;;;;22.35;7.88;;;;;;;-149.78;100.00;50322.81;4841737;29;20120;-70
2022/03/10 04:09:38;;;;;;;19.67;7.65;;;;;;;-149.78;100.00;50322.81;4841762;29;20034;-70
2022/03/10 04:12:04;;;;;;;21.98;7.57;;;;;;;-149.78;100.00;50330.63;4826673;29;20039;-70
2022/03/10 04:14:30;;;;;;;19.25;7.65;;;;;;;-149.78;100.00;50314.97;4826042;29;20134;-70
2022/03/10 04:16:56;;;;;;;24.38;7.68;;;;;;;-149.78;100.00;50342.38;4810605;29;20043;-71
2022/03/10 04:19:21;;;;;;;17.45;8.48;;;;;;;-149.78;100.00;50283.69;4826265;29;20037;-71
2022/03/10 04:21:47;;;;;;;18.13;7.25;;;;;;;-149.78;100.00;50336.50;4825400;29;20038;-71
2022/03/10 04:24:12;;;;;;;20.38;7.45;;;;;;;-149.78;100.00;50346.28;4841677;29;20058;-71
2022/03/10 04:26:39;;;;;;;19.48;8.20;;;;;;;-149.78;100.00;50299.34;4825271;29;20040;-70
2022/03/10 04:29:04;;;;;;;22.20;9.43;;;;;;;-149.78;100.00;50346.28;4809947;29;20037;-70
2022/03/10 04:31:31;;;;;;;22.85;8.25;;;;;;;-149.78;100.00;50326.72;4841284;29;20107;-71
2022/03/10 04:33:56;;;;;;;15.95;7.95;;;;;;;-149.78;100.00;50334.53;4825257;29;20041;-71
2022/03/10 04:36:23;;;;;;;17.70;7.22;;;;;;;-149.78;100.00;50346.28;4841175;29;20073;-70
2022/03/10 04:38:49;;;;;;;18.35;7.75;;;;;;;-149.78;100.00;50336.50;4822596;29;20058;-70
2022/03/10 04:41:15;;;;;;;18.00;7.95;;;;;;;-149.78;100.00;50348.22;4791851;29;20088;-70
2022/03/10 04:43:41;;;;;;;21.73;8.73;;;;;;;-149.78;100.00;50330.63;4806998;29;20046;-70
2022/03/10 04:46:07;;;;;;;22.85;7.90;;;;;;;-149.78;100.00;50324.75;4822351;29;20046;-70
2022/03/10 04:48:32;;;;;;;17.75;7.50;;;;;;;-149.78;100.00;50299.34;4790441;29;20039;-71
2022/03/10 04:50:58;;;;;;;22.15;8.02;;;;;;;-149.78;100.00;50291.50;4825000;29;20038;-71
2022/03/10 04:53:23;;;;;;;19.20;7.60;;;;;;;-149.78;100.00;50297.38;4824992;29;20561;-71
2022/03/10 04:55:49;;;;;;;19.17;7.20;;;;;;;-149.78;100.00;50314.97;4824791;29;20129;-71
2022/03/10 04:58:16;;;;;;;19.80;7.45;;;;;;;-149.78;100.00;50311.06;4841267;29;20065;-71
2022/03/10 05:00:41;;;;;;;25.00;8.02;;;;;;;-149.78;100.00;50299.34;4841242;29;20034;-71
2022/03/10 05:03:07;;;;;;;19.63;7.28;;;;;;;-149.78;100.00;50309.13;4824820;29;20125;-71
2022/03/10 05:05:32;;;;;;;15.45;7.13;;;;;;;-149.78;100.00;50332.59;4841130;29;20080;-71
2022/03/10 05:07:58;;;;;;;21.08;7.70;;;;;;;-149.78;100.00;50305.22;4824761;29;20037;-71
2022/03/10 05:10:24;;;;;;;16.25;8.43;;;;;;;-149.78;100.00;50309.13;4822700;29;20508;-71
2022/03/10 05:12:57;;;;;;;16.88;7.55;;;;;;;-149.78;100.00;50303.25;4791572;29;20683;-71
2022/03/10 05:15:32;;;;;;;20.70;8.45;;;;;;;-149.78;100.00;50299.34;4833083;29;20173;-71
2022/03/10 05:18:03;;;;;;;15.40;7.50;;;;;;;-149.78;100.00;50307.16;4841002;29;20049;-71
2022/03/10 05:20:30;;;;;;;18.90;6.88;;;;;;;-149.78;100.00;50326.72;4840547;29;20078;-69
2022/03/10 05:22:58;;;;;;;17.45;7.03;;;;;;;-149.78;100.00;50350.19;4791764;29;20129;-69
2022/03/10 05:25:30;;;;;;;16.55;7.30;;;;;;;-149.78;100.00;50338.44;4822989;29;20042;-70
2022/03/10 05:27:56;;;;;;;14.23;6.88;;;;;;;-149.78;100.00;50326.72;4826226;29;20042;-70
2022/03/10 05:30:22;;;;;;;18.50;7.15;;;;;;;-149.78;100.00;50320.84;4826202;29;20053;-69
2022/03/10 05:32:48;;;;;;;19.77;7.25;;;;;;;-149.78;100.00;50291.50;4826037;29;20455;-70
2022/03/10 05:35:15;;;;;;;19.15;7.03;;;;;;;-149.78;100.00;50338.44;4809875;29;20624;-70
2022/03/10 05:37:43;;;;;;;16.30;7.55;;;;;;;-149.78;100.00;50373.66;4809873;29;20039;-72
2022/03/10 05:40:12;;;;;;;20.15;6.85;;;;;;;-149.78;100.00;50324.75;4825794;29;20038;-70
2022/03/10 05:42:39;;;;;;;16.58;7.35;;;;;;;-149.78;100.00;50275.88;4825918;29;20037;-70
2022/03/10 05:45:07;;;;;;;14.52;6.90;;;;;;;-149.78;100.00;50330.63;4794892;29;20388;-69
2022/03/10 05:47:32;;;;;;;15.40;6.97;;;;;;;-149.78;100.00;50334.53;4826034;29;20479;-69
2022/03/10 05:49:58;;;;;;;16.15;7.18;;;;;;;-149.78;100.00;50334.53;4825741;29;20054;-70
2022/03/10 05:52:24;;;;;;;20.50;7.32;;;;;;;-149.78;100.00;50373.66;4809817;29;20102;-70
2022/03/10 05:54:49;;;;;;;17.75;6.88;;;;;;;-149.78;100.00;50334.53;4825763;29;20057;-69
2022/03/10 05:57:15;;;;;;;18.92;7.57;;;;;;;-149.78;100.00;50311.06;4843934;29;20045;-69
2022/03/10 05:59:41;;;;;;;16.10;7.28;;;;;;;-149.78;100.00;50311.06;4827577;29;20038;-70
2022/03/10 06:02:06;;;;;;;11.18;5.97;;;;;;;-149.78;100.00;50322.81;4827394;29;20046;-69
2022/03/10 06:04:32;;;;;;;15.95;6.63;;;;;;;-149.78;100.00;50322.81;4827471;29;20132;-69
2022/03/10 06:06:57;;;;;;;14.48;6.82;;;;;;;-149.78;100.00;50328.69;4827540;29;20037;-69
2022/03/10 06:09:23;;;;;;;17.10;7.05;;;;;;;-149.78;100.00;50305.22;4843958;29;20855;-69
2022/03/10 06:11:48;;;;;;;15.88;7.38;;;;;;;-149.78;100.00;50287.59;4830835;29;20034;-69
2022/03/10 06:14:14;;;;;;;16.70;6.90;;;;;;;-149.78;100.00;50307.16;4814815;29;20489;-69
2022/03/10 06:16:40;;;;;;;16.58;7.32;;;;;;;-149.78;100.00;50314.97;4842549;29;20098;-70
2022/03/10 06:19:08;;;;;;;21.83;8.05;;;;;;;-149.78;100.00;50340.41;4843525;29;20038;-70
2022/03/10 06:21:34;;;;;;;17.60;7.88;;;;;;;-149.78;100.00;50354.09;4843716;29;20034;-69
2022/03/10 06:24:00;;;;;;;18.52;6.95;;;;;;;-149.78;100.00;50311.06;4842591;29;20395;-69
2022/03/10 06:26:25;;;;;;;15.60;7.50;;;;;;;-149.78;100.00;50322.81;4843720;29;20478;-70
2022/03/10 06:28:51;;;;;;;16.13;7.65;;;;;;;-149.78;100.00;50291.50;4843548;29;20037;-70
2022/03/10 06:31:17;;;;;;;20.52;7.60;;;;;;;-149.78;100.00;50338.44;4829037;29;20137;-69
2022/03/10 06:33:42;;;;;;;16.02;7.55;;;;;;;-149.78;100.00;50314.97;4809040;29;20129;-70
2022/03/10 06:36:09;;;;;;;20.92;7.80;;;;;;;-149.78;100.00;50354.09;4823897;29;20073;-70
2022/03/10 06:38:36;;;;;;;17.80;8.45;;;;;;;-149.78;100.00;50314.97;4823316;29;20467;-69
2022/03/10 06:41:03;;;;;;;14.55;7.38;;;;;;;-149.78;100.00;50322.81;4821689;29;20506;-69
2022/03/10 06:43:29;;;;;;;18.15;7.80;;;;;;;-149.78;100.00;50346.28;4807967;29;20041;-70
2022/03/10 06:45:54;;;;;;;14.50;7.50;;;;;;;-149.78;100.00;50307.16;4822912;29;20034;-69
2022/03/10 06:48:20;;;;;;;22.77;8.20;;;;;;;-149.78;100.00;50324.75;4820462;29;20041;-69
2022/03/10 06:50:46;;;;;;;15.35;7.43;;;;;;;-149.78;100.00;50303.25;4823275;29;20114;-71
2022/03/10 06:53:13;;;;;;;16.27;7.97;;;;;;;-149.78;100.00;50334.53;4823275;29;20471;-72
2022/03/10 06:55:39;;;;;;;16.70;7.45;;;;;;;-149.78;100.00;50322.81;4825000;29;20041;-69
2022/03/10 06:58:04;;;;;;;16.88;7.97;;;;;;;-149.78;100.00;50314.97;4823084;29;20030;-69
2022/03/10 07:00:31;;;;;;;18.02;7.38;;;;;;;-149.78;100.00;50311.06;4790730;29;20066;-69
2022/03/10 07:02:57;;;;;;;16.95;7.40;;;;;;;-149.78;100.00;50334.53;4818595;29;20035;-71
2022/03/10 07:05:23;;;;;;;15.48;6.90;;;;;;;-149.78;100.00;50338.44;4814908;29;20091;-71
2022/03/10 07:07:49;;;;;;;21.33;8.30;;;;;;;-149.78;100.00;50318.91;4806546;29;20042;-71
2022/03/10 07:10:15;;;;;;;16.95;7.90;;;;;;;-149.78;100.00;50334.53;4790701;29;20376;-72
2022/03/10 07:12:41;;;;;;;19.00;7.65;;;;;;;-149.78;100.00;50311.06;4823222;29;20037;-71
2022/03/10 07:15:11;;;;;;;19.80;7.88;;;;;;;-149.78;100.00;50299.34;4821539;29;20027;-72
2022/03/10 07:17:41;;;;;;;18.42;7.53;;;;;;;-149.78;100.00;50342.38;4817856;29;20034;-70
2022/03/10 07:20:08;;;;;;;18.30;8.25;;;;;;;-149.78;100.00;50322.81;4822064;29;20039;-72
2022/03/10 07:22:34;;;;;;;15.43;7.72;;;;;;;-149.78;100.00;50322.81;4819511;29;20141;-71
2022/03/10 07:25:00;;;;;;;17.65;8.10;;;;;;;-149.78;100.00;50338.44;4814334;29;20035;-72
2022/03/10 07:27:25;;;;;;;14.63;7.50;;;;;;;-149.78;100.00;50303.25;4806650;29;20044;-72
2022/03/10 07:29:51;;;;;;;15.60;7.35;;;;;;;-149.78;100.00;50342.38;4822350;29;20054;-71
2022/03/10 07:32:17;;;;;;;20.83;8.25;;;;;;;-149.78;100.00;50359.97;4820687;29;20058;-71
2022/03/10 07:34:47;;;;;;;16.48;8.68;;;;;;;-149.78;100.00;50299.34;4820775;29;20042;-73
2022/03/10 07:37:15;;;;;;;23.40;7.93;;;;;;;-149.78;100.00;50307.16;4808189;29;20063;-72
2022/03/10 07:39:41;;;;;;;16.48;8.00;;;;;;;-149.78;100.00;50307.16;4829259;29;20491;-73
2022/03/10 07:42:08;;;;;;;18.50;8.07;;;;;;;-149.78;100.00;50338.44;4813755;29;20044;-73
2022/03/10 07:44:34;;;;;;;19.42;8.23;;;;;;;-149.78;100.00;50330.63;4827995;29;20086;-73
2022/03/10 07:47:00;;;;;;;17.00;7.82;;;;;;;-149.78;100.00;50318.91;4828590;29;20034;-74
2022/03/10 07:49:26;;;;;;;20.38;8.45;;;;;;;-149.78;100.00;50299.34;4830030;29;20045;-72
2022/03/10 07:51:52;;;;;;;18.25;8.50;;;;;;;-149.78;100.00;50307.16;4826272;29;20038;-72
2022/03/10 07:54:17;;;;;;;22.17;8.73;;;;;;;-149.78;100.00;50330.63;4797874;29;20502;-74
2022/03/10 07:56:43;;;;;;;17.48;8.98;;;;;;;-149.78;100.00;50271.97;4802771;29;20102;-75
2022/03/10 07:59:09;;;;;;;21.08;8.77;;;;;;;-149.78;100.00;50260.22;4789358;29;20082;-74
2022/03/10 08:01:34;;;;;;;16.98;8.20;;;;;;;-149.78;100.00;50209.38;4811381;29;20047;-72
2022/03/10 08:04:00;;;;;;;17.83;8.10;;;;;;;-149.78;100.00;50166.34;4822030;29;20050;-73
2022/03/10 08:06:27;;;;;;;14.70;7.25;;;;;;;-149.78;100.00;50162.44;4821099;29;20094;-73
2022/03/10 08:08:54;;;;;;;16.50;7.78;;;;;;;-149.78;100.00;50123.34;4817880;29;20080;-72
2022/03/10 08:11:19;;;;;;;16.35;7.43;;;;;;;-149.78;100.00;50150.72;4803290;29;20107;-73
2022/03/10 08:13:45;;;;;;;10.50;6.70;;;;;;;-149.78;100.00;50111.59;4816844;29;20049;-73
2022/03/10 08:16:10;;;;;;;13.48;6.90;;;;;;;-149.78;100.00;50045.09;4823435;29;20118;-73
2022/03/10 08:18:36;;;;;;;14.13;7.38;;;;;;;-149.78;92.03;50047.06;4815585;29;20045;-73
2022/03/10 08:21:02;;;;;;;11.40;7.38;;;;;;;-149.78;96.15;50092.03;4820123;29;20038;-73
2022/03/10 08:23:29;;;;;;;12.07;7.57;;;;;;;-149.78;93.68;50092.03;4820777;29;20046;-72
2022/03/10 08:25:55;;;;;;;12.88;7.00;;;;;;;-149.78;100.00;50105.72;4823268;29;20049;-74
2022/03/10 08:28:21;;;;;;;11.82;7.13;;;;;;;-149.78;100.00;50123.34;4823498;29;20174;-73
2022/03/10 08:30:47;;;;;;;16.27;7.47;;;;;;;-149.78;100.00;50135.06;4820907;29;20034;-73
2022/03/10 08:33:13;;;;;;;14.50;7.38;;;;;;;-149.78;100.00;50185.91;4822922;29;20075;-71
2022/03/10 08:35:39;;;;;;;14.80;8.15;;;;;;;-149.78;100.00;50197.66;4823379;29;20065;-72
2022/03/10 08:38:05;;;;;;;15.15;7.60;;;;;;;-149.78;100.00;50183.97;4806209;29;20046;-71
2022/03/10 08:40:30;;;;;;;15.57;8.32;;;;;;;-149.78;100.00;50217.19;4819836;29;20039;-72
2022/03/10 08:42:56;;;;;;;16.77;8.45;;;;;;;-149.78;100.00;50225.03;4819314;29;20484;-72
2022/03/10 08:45:25;;;;;;;15.48;8.18;;;;;;;-149.78;100.00;50221.13;4806559;29;20045;-71
2022/03/10 08:47:54;;;;;;;15.65;7.80;;;;;;;-149.78;100.00;50236.75;4823089;29;20117;-72
2022/03/10 08:50:21;;;;;;;14.57;7.68;;;;;;;-149.78;100.00;50275.88;4806894;29;20042;-71
2022/03/10 08:52:46;;;;;;;19.27;8.43;;;;;;;-149.78;100.00;50273.91;4823219;29;20046;-72
2022/03/10 08:55:12;;;;;;;17.98;7.40;;;;;;;-149.78;100.00;50252.41;4823249;29;20095;-71
2022/03/10 08:57:39;;;;;;;16.15;7.15;;;;;;;-149.78;100.00;50232.84;4823251;29;20092;-71
2022/03/10 09:00:07;;;;;;;16.83;8.38;;;;;;;-149.78;100.00;50285.66;4806495;29;20070;-71
2022/03/10 09:02:33;;;;;;;17.98;8.38;;;;;;;-149.78;100.00;50275.88;4806302;29;20099;-72
2022/03/10 09:04:59;;;;;;;21.75;8.52;;;;;;;-149.78;100.00;50273.91;4826477;29;20430;-71
2022/03/10 09:07:24;;;;;;;16.92;7.88;;;;;;;-149.78;100.00;50260.22;4825370;29;20087;-71
2022/03/10 09:09:50;;;;;;;16.45;8.20;;;;;;;-149.78;100.00;50287.59;4809550;29;20406;-71
2022/03/10 09:12:16;;;;;;;20.27;8.88;;;;;;;-149.78;100.00;50275.88;4824287;29;20382;-71
2022/03/10 09:14:41;;;;;;;15.23;8.13;;;;;;;-149.78;100.00;50252.41;4810577;29;20547;-71
2022/03/10 09:17:07;;;;;;;16.40;8.20;;;;;;;-149.78;100.00;50240.66;4806831;29;20368;-71
2022/03/10 09:19:33;;;;;;;17.63;7.93;;;;;;;-149.78;100.00;50281.75;4821765;29;20038;-71
2022/03/10 09:21:59;;;;;;;16.55;8.40;;;;;;;-149.78;100.00;50268.03;4823866;29;20463;-71
2022/03/10 09:24:25;;;;;;;20.17;8.00;;;;;;;-149.78;100.00;50256.31;4821982;29;20066;-71
2022/03/10 09:26:50;;;;;;;17.45;7.63;;;;;;;-149.78;100.00;50264.13;4826018;29;20451;-71
2022/03/10 09:29:16;;;;;;;15.27;7.72;;;;;;;-149.78;100.00;50246.53;4809906;29;20061;-71
2022/03/10 09:31:43;;;;;;;16.65;7.80;;;;;;;-149.78;100.00;50260.22;4825590;29;20050;-72
2022/03/10 09:34:08;;;;;;;16.33;6.78;;;;;;;-149.78;100.00;50273.91;4809797;29;20103;-71
2022/03/10 09:36:34;;;;;;;13.85;7.05;;;;;;;-149.78;100.00;50287.59;4824938;29;20050;-70
2022/03/10 09:39:00;;;;;;;14.82;6.85;;;;;;;-149.78;100.00;50270.00;4825827;29;20058;-70
2022/03/10 09:41:28;;;;;;;15.07;6.80;;;;;;;-149.78;100.00;50303.25;4809852;29;20448;-71
2022/03/10 09:43:54;;;;;;;15.85;6.28;;;;;;;-149.78;100.00;50270.00;4825880;29;20098;-71
2022/03/10 09:46:20;;;;;;;16.45;6.97;;;;;;;-149.78;100.00;50295.44;4809830;29;20042;-71
2022/03/10 09:48:47;;;;;;;15.18;6.75;;;;;;;-149.78;100.00;50264.13;4825733;29;20495;-71
2022/03/10 09:51:13;;;;;;;12.18;6.25;;;;;;;-149.78;100.00;50275.88;4825668;29;20096;-71
2022/03/10 09:53:41;;;;;;;14.82;6.72;;;;;;;-149.78;100.00;50291.50;4809877;29;20062;-71
2022/03/10 09:56:07;;;;;;;15.73;6.50;;;;;;;-149.78;100.00;50275.88;4836996;29;20097;-71
2022/03/10 09:58:33;;;;;;;14.85;6.45;;;;;;;-149.78;100.00;50260.22;4827658;29;20491;-71
2022/03/10 10:01:03;;;;;;;16.52;6.95;;;;;;;-149.78;100.00;50275.88;4812353;29;20098;-71
2022/03/10 10:03:29;;;;;;;11.13;6.38;;;;;;;-149.78;100.00;50287.59;4827497;29;20029;-72
2022/03/10 10:06:00;;;;;;;12.38;6.03;;;;;;;-149.78;100.00;50260.22;4843941;29;20033;-71
2022/03/10 10:08:26;;;;;;;12.25;7.22;;;;;;;-149.78;100.00;50283.69;4843925;29;20042;-71
2022/03/10 10:10:53;;;;;;;15.55;6.57;;;;;;;-149.78;100.00;50260.22;4837933;29;20394;-71
2022/03/10 10:13:42;;;;;;;18.58;6.97;;;;;;;-149.78;100.00;50279.78;4824310;29;20053;-71
2022/03/10 10:16:13;;;;;;;18.13;6.55;;;;;;;-149.78;100.00;50271.97;4841049;29;20050;-71
2022/03/10 10:18:40;;;;;;;21.00;7.13;;;;;;;-149.78;100.00;50260.22;4843852;29;20129;-71
2022/03/10 10:21:07;;;;;;;14.80;6.93;;;;;;;-149.78;100.00;50250.44;4833167;29;20483;-71
2022/03/10 10:23:35;;;;;;;16.30;7.70;;;;;;;-149.78;100.00;50287.59;4823023;29;20041;-71
2022/03/10 10:26:09;;;;;;;11.05;6.75;;;;;;;-149.78;100.00;50268.03;4809136;29;20042;-71
2022/03/10 10:28:37;;;;;;;13.93;6.93;;;;;;;-149.78;100.00;50248.50;4808923;29;20038;-71
2022/03/10 10:31:04;;;;;;;13.88;6.80;;;;;;;-149.78;100.00;50248.50;4793338;29;20057;-70
2022/03/10 10:33:33;;;;;;;14.65;7.40;;;;;;;-149.78;100.00;50252.41;4822359;29;20444;-70
2022/03/10 10:36:19;;;;;;;13.70;7.00;;;;;;;-149.78;100.00;50256.31;4808965;29;20042;-71
2022/03/10 10:38:48;;;;;;;17.38;7.03;;;;;;;-149.78;100.00;50244.59;4808627;29;20668;-70
2022/03/10 10:41:30;;;;;;;12.10;6.57;;;;;;;-149.78;100.00;50236.75;4824968;29;20158;-70
2022/03/10 10:43:59;;;;;;;12.35;6.22;;;;;;;-149.78;100.00;50250.44;4808805;29;20046;-71
2022/03/10 10:46:30;;;;;;;11.65;6.40;;;;;;;-149.78;100.00;50254.34;4808762;29;20080;-71
2022/03/10 10:48:58;;;;;;;14.30;6.07;;;;;;;-149.78;100.00;50221.13;4823548;29;20038;-71
2022/03/10 10:51:30;;;;;;;11.13;5.85;;;;;;;-149.78;100.00;50248.50;4823723;29;20042;-72
2022/03/10 10:54:00;;;;;;;10.38;5.53;;;;;;;-149.78;100.00;50213.28;4824703;29;20049;-72
2022/03/10 10:56:28;;;;;;;13.85;5.35;;;;;;;-149.78;100.00;50201.56;4837740;29;20117;-72
2022/03/10 10:58:54;;;;;;;14.73;6.10;;;;;;;-149.78;100.00;50225.03;4811380;29;20037;-72
2022/03/10 11:01:34;;;;;;;11.07;5.65;;;;;;;-149.78;100.00;50174.19;4842944;29;20045;-72
2022/03/10 11:04:03;;;;;;;11.63;5.55;;;;;;;-149.78;100.00;50221.13;4842866;29;20069;-72
2022/03/10 11:06:29;;;;;;;10.77;4.90;;;;;;;-149.78;100.00;50187.88;4826574;29;20125;-72
2022/03/10 11:08:55;;;;;;;10.20;5.30;;;;;;;-149.78;100.00;50232.84;4842832;29;20045;-71
2022/03/10 11:11:22;;;;;;;12.43;5.55;;;;;;;-149.78;100.00;50209.38;4833274;29;20067;-71
2022/03/10 11:13:48;;;;;;;13.25;5.72;;;;;;;-149.78;100.00;50244.59;4778320;29;20042;-72
2022/03/10 11:16:16;;;;;;;11.15;5.63;;;;;;;-149.78;100.00;50248.50;4840935;29;20042;-72
2022/03/10 11:18:49;;;;;;;13.52;5.97;;;;;;;-149.78;100.00;50223.06;4796581;29;20041;-71
2022/03/10 11:21:15;;;;;;;;;;;;;;;-149.78;100.00;50203.50;4842877;29;20138;-72
2022/03/10 11:24:10;;;;;;;8.80;5.45;;;;;;;-149.78;100.00;50228.94;4842271;29;20342;-72